createdAt,value
2022-10-01T00:01:02.662Z,78.57
2022-10-01T00:03:38.354Z,78.49
2022-10-01T00:06:16.868Z,78.71
2022-10-01T00:08:45.126Z,79.68
2022-10-01T00:11:21.270Z,80.29
2022-10-01T00:13:51.831Z,80.16
2022-10-01T00:16:22.621Z,79.80
2022-10-01T00:18:50.479Z,78.57
2022-10-01T00:21:26.710Z,78.46
2022-10-01T00:24:02.406Z,78.24
2022-10-01T00:26:34.955Z,79.05
2022-10-01T00:29:09.870Z,79.92
2022-10-01T00:31:37.705Z,79.84
2022-10-01T00:34:08.567Z,79.59
2022-10-01T00:36:35.549Z,79.29
2022-10-01T00:39:02.790Z,79.20
2022-10-01T00:41:32.808Z,79.65
2022-10-01T00:44:02.965Z,79.77
2022-10-01T00:46:40.893Z,79.22
2022-10-01T00:49:22.510Z,79.84
2022-10-01T00:51:54.035Z,79.01
2022-10-01T00:54:41.509Z,78.60
2022-10-01T00:57:10.795Z,79.30
2022-10-01T00:59:37.910Z,79.43
2022-10-01T01:02:05.421Z,79.72
2022-10-01T01:04:35.151Z,79.00
2022-10-01T01:07:04.350Z,79.10
2022-10-01T01:09:37.275Z,79.16
2022-10-01T01:12:33.767Z,79.81
2022-10-01T01:15:28.526Z,79.35
2022-10-01T01:18:05.310Z,79.33
2022-10-01T01:21:06.070Z,78.65
2022-10-01T01:23:47.671Z,80.47
2022-10-01T01:26:26.151Z,80.60
2022-10-01T01:28:59.849Z,80.64
2022-10-01T01:31:34.299Z,79.45
2022-10-01T01:34:14.249Z,79.39
2022-10-01T01:36:48.112Z,79.92
2022-10-01T01:39:18.310Z,81.07
2022-10-01T01:41:50.313Z,80.11
2022-10-01T01:44:23.230Z,80.49
2022-10-01T01:46:54.816Z,79.89
2022-10-01T01:49:23.406Z,80.10
2022-10-01T01:52:15.911Z,80.71
2022-10-01T01:54:44.573Z,80.68
2022-10-01T01:57:16.595Z,81.69
2022-10-01T01:59:46.693Z,81.90
2022-10-01T02:02:19.583Z,81.57
2022-10-01T02:04:55.126Z,82.09
2022-10-01T02:07:59.391Z,81.08
2022-10-01T02:11:00.042Z,81.00
2022-10-01T02:13:50.413Z,79.83
2022-10-01T02:16:56.410Z,79.75
2022-10-01T02:19:38.130Z,79.35
2022-10-01T02:22:18.073Z,79.98
2022-10-01T02:24:50.330Z,80.42
2022-10-01T02:27:43.800Z,80.42
2022-10-01T02:30:12.790Z,80.48
2022-10-01T02:32:44.103Z,80.19
2022-10-01T02:35:14.551Z,79.76
2022-10-01T02:37:45.206Z,79.31
2022-10-01T02:40:16.393Z,80.74
2022-10-01T02:42:51.833Z,80.81
2022-10-01T02:45:33.012Z,80.61
2022-10-01T02:48:10.366Z,81.18
2022-10-01T02:50:48.631Z,81.90
2022-10-01T02:53:40.905Z,81.45
2022-10-01T02:56:10.457Z,81.10
2022-10-01T02:58:37.509Z,80.76
2022-10-01T03:01:04.494Z,80.06
2022-10-01T03:03:33.245Z,81.05
2022-10-01T03:06:00.152Z,81.30
2022-10-01T03:08:30.016Z,81.49
2022-10-01T03:10:59.404Z,81.23
2022-10-01T03:13:26.245Z,82.29
2022-10-01T03:15:53.356Z,82.91
2022-10-01T03:18:23.190Z,83.63
2022-10-01T03:20:50.097Z,83.80
2022-10-01T03:23:17.491Z,83.55
2022-10-01T03:25:46.790Z,83.15
2022-10-01T03:28:13.707Z,81.39
2022-10-01T03:30:43.911Z,82.16
2022-10-01T03:33:11.109Z,82.59
2022-10-01T03:35:40.409Z,82.26
2022-10-01T03:38:09.492Z,81.97
2022-10-01T03:40:43.751Z,82.52
2022-10-01T03:43:11.017Z,82.30
2022-10-01T03:45:38.200Z,83.00
2022-10-01T03:48:07.368Z,83.12
2022-10-01T03:50:34.394Z,83.25
2022-10-01T03:53:01.525Z,82.72
2022-10-01T03:55:28.313Z,83.12
2022-10-01T03:57:55.405Z,82.89
2022-10-01T04:00:22.469Z,82.97
2022-10-01T04:02:50.856Z,84.16
2022-10-01T04:05:18.137Z,84.52
2022-10-01T04:07:46.831Z,85.34
2022-10-01T04:10:16.109Z,85.39
2022-10-01T04:12:43.168Z,84.98
2022-10-01T04:15:10.688Z,84.16
2022-10-01T04:17:37.926Z,84.06
2022-10-01T04:20:05.270Z,84.07
2022-10-01T04:22:39.239Z,84.53
2022-10-01T04:25:10.429Z,84.37
2022-10-01T04:27:38.550Z,84.14
2022-10-01T04:30:11.950Z,84.52
2022-10-01T04:32:41.352Z,84.63
2022-10-01T04:35:10.847Z,84.54
2022-10-01T04:37:40.937Z,83.71
2022-10-01T04:40:08.510Z,83.95
2022-10-01T04:42:35.469Z,83.63
2022-10-01T04:45:02.849Z,83.30
2022-10-01T04:47:30.756Z,83.53
2022-10-01T04:49:58.990Z,82.79
2022-10-01T04:52:25.929Z,83.04
2022-10-01T04:54:53.008Z,83.33
2022-10-01T04:57:20.049Z,83.64
2022-10-01T04:59:47.251Z,83.78
2022-10-01T05:02:14.668Z,84.01
2022-10-01T05:04:41.576Z,83.58
2022-10-01T05:07:08.620Z,82.91
2022-10-01T05:09:37.448Z,82.95
2022-10-01T05:12:06.350Z,83.36
2022-10-01T05:14:33.619Z,84.31
2022-10-01T05:17:01.031Z,83.90
2022-10-01T05:19:28.222Z,84.67
2022-10-01T05:21:56.083Z,83.50
2022-10-01T05:24:23.114Z,83.81
2022-10-01T05:26:51.470Z,83.67
2022-10-01T05:29:18.887Z,81.22
2022-10-01T05:31:46.213Z,80.90
2022-10-01T05:34:15.726Z,79.62
2022-10-01T05:36:42.974Z,79.89
2022-10-01T05:39:11.972Z,79.72
2022-10-01T05:41:39.165Z,78.35
2022-10-01T05:44:06.231Z,77.95
2022-10-01T05:46:33.889Z,77.16
2022-10-01T05:49:00.809Z,77.09
2022-10-01T05:51:32.673Z,77.27
2022-10-01T05:54:01.776Z,77.43
2022-10-01T05:56:29.072Z,78.44
2022-10-01T05:58:56.316Z,78.70
2022-10-01T06:01:23.529Z,78.09
2022-10-01T06:03:53.874Z,76.75
2022-10-01T06:06:26.091Z,77.16
2022-10-01T06:08:56.190Z,76.60
2022-10-01T06:11:23.674Z,75.80
2022-10-01T06:13:51.071Z,75.11
2022-10-01T06:16:18.336Z,74.20
2022-10-01T06:18:48.886Z,72.57
2022-10-01T06:21:16.316Z,73.50
2022-10-01T06:23:43.313Z,74.49
2022-10-01T06:26:10.728Z,75.27
2022-10-01T06:28:37.871Z,73.37
2022-10-01T06:31:05.012Z,75.42
2022-10-01T06:33:37.090Z,75.00
2022-10-01T06:36:05.394Z,72.76
2022-10-01T06:38:34.887Z,72.24
2022-10-01T06:41:04.553Z,71.30
2022-10-01T06:43:35.910Z,69.46
2022-10-01T06:46:04.954Z,68.23
2022-10-01T06:48:34.124Z,68.73
2022-10-01T06:51:01.248Z,69.54
2022-10-01T06:53:33.501Z,68.17
2022-10-01T06:56:10.512Z,67.71
2022-10-01T06:58:37.948Z,66.25
2022-10-01T07:01:04.862Z,64.52
2022-10-01T07:03:32.549Z,63.93
2022-10-01T07:06:07.528Z,63.71
2022-10-01T07:08:37.965Z,64.11
2022-10-01T07:11:07.324Z,63.68
2022-10-01T07:13:36.675Z,62.32
2022-10-01T07:16:04.629Z,62.07
2022-10-01T07:18:31.764Z,62.40
2022-10-01T07:20:59.048Z,60.98
2022-10-01T07:23:29.456Z,59.95
2022-10-01T07:25:57.412Z,60.18
2022-10-01T07:28:24.448Z,59.56
2022-10-01T07:31:06.718Z,60.03
2022-10-01T07:33:34.231Z,59.59
2022-10-01T07:36:03.574Z,60.20
2022-10-01T07:38:30.784Z,60.19
2022-10-01T07:40:57.651Z,59.62
2022-10-01T07:43:25.009Z,57.29
2022-10-01T07:45:52.025Z,56.86
2022-10-01T07:48:19.052Z,55.25
2022-10-01T07:50:46.697Z,56.09
2022-10-01T07:53:14.191Z,56.45
2022-10-01T07:55:41.193Z,57.34
2022-10-01T07:58:08.547Z,56.38
2022-10-01T08:00:36.021Z,57.79
2022-10-01T08:03:03.033Z,59.17
2022-10-01T08:05:35.851Z,59.17
2022-10-01T08:08:06.074Z,61.10
2022-10-01T08:10:37.827Z,62.33
2022-10-01T08:13:12.250Z,59.99
2022-10-01T08:15:39.297Z,61.02
2022-10-01T08:18:06.194Z,60.33
2022-10-01T08:20:33.928Z,60.23
2022-10-01T08:23:09.954Z,61.42
2022-10-01T08:25:38.390Z,62.74
2022-10-01T08:28:06.017Z,60.90
2022-10-01T08:30:35.926Z,61.10
2022-10-01T08:33:03.310Z,61.76
2022-10-01T08:35:30.594Z,62.59
2022-10-01T08:38:07.686Z,62.25
2022-10-01T08:40:57.431Z,62.80
2022-10-01T08:43:41.734Z,62.76
2022-10-01T08:46:17.366Z,62.85
2022-10-01T08:48:44.413Z,64.43
2022-10-01T08:51:34.286Z,63.75
2022-10-01T08:54:22.155Z,63.38
2022-10-01T08:56:49.476Z,63.42
2022-10-01T08:59:43.027Z,64.14
2022-10-01T09:02:25.516Z,63.23
2022-10-01T09:05:21.456Z,63.33
2022-10-01T09:08:05.418Z,64.14
2022-10-01T09:10:41.251Z,63.98
2022-10-01T09:16:04.877Z,64.47
2022-10-01T09:19:01.052Z,63.81
2022-10-01T09:21:50.676Z,64.87
2022-10-01T09:24:36.734Z,65.00
2022-10-01T09:27:13.533Z,64.88
2022-10-01T09:29:46.310Z,65.25
2022-10-01T09:32:19.856Z,67.82
2022-10-01T09:34:47.648Z,70.99
2022-10-01T09:37:29.015Z,72.63
2022-10-01T09:40:17.932Z,75.98
2022-10-01T09:42:45.255Z,78.66
2022-10-01T09:45:14.171Z,80.68
2022-10-01T09:47:44.028Z,81.22
2022-10-01T09:50:21.292Z,81.06
2022-10-01T09:52:51.168Z,83.47
2022-10-01T09:55:26.714Z,82.83
2022-10-01T09:58:09.727Z,83.93
2022-10-01T10:00:39.071Z,82.13
2022-10-01T10:03:06.326Z,82.49
2022-10-01T10:08:51.990Z,81.73
2022-10-01T10:11:33.705Z,76.91
2022-10-01T10:14:04.932Z,77.97
2022-10-01T10:16:37.837Z,76.48
2022-10-01T10:19:08.167Z,76.35
2022-10-01T10:21:35.228Z,76.11
2022-10-01T10:24:07.453Z,76.03
2022-10-01T10:26:38.093Z,75.39
2022-10-01T10:29:07.414Z,75.62
2022-10-01T10:31:46.196Z,75.75
2022-10-01T10:34:18.204Z,75.24
2022-10-01T10:36:52.915Z,72.63
2022-10-01T10:39:27.570Z,72.65
2022-10-01T10:41:56.631Z,73.77
2022-10-01T10:44:30.586Z,72.82
2022-10-01T10:47:10.822Z,72.17
2022-10-01T10:52:43.746Z,75.36
2022-10-01T10:55:27.632Z,75.87
2022-10-01T10:57:57.786Z,77.25
2022-10-01T11:00:38.474Z,78.90
2022-10-01T11:09:00.646Z,80.65
2022-10-01T11:25:13.217Z,83.90
2022-10-01T11:28:03.941Z,82.54
2022-10-01T11:34:01.074Z,84.41
2022-10-01T11:36:55.584Z,84.74
2022-10-01T11:39:33.047Z,85.13
2022-10-01T11:42:20.035Z,86.30
2022-10-01T11:45:24.675Z,85.60
2022-10-01T11:48:50.610Z,84.82
2022-10-01T11:51:40.314Z,85.20
2022-10-01T11:54:29.667Z,84.41
2022-10-01T11:56:59.786Z,84.34
2022-10-01T11:59:53.728Z,83.62
2022-10-01T12:02:37.776Z,83.07
2022-10-01T12:05:10.509Z,83.35
2022-10-01T12:08:27.035Z,82.03
2022-10-01T12:11:15.968Z,80.25
2022-10-01T12:13:58.889Z,78.13
2022-10-01T12:16:35.010Z,77.42
2022-10-01T12:19:34.035Z,76.99
2022-10-01T12:22:07.099Z,78.29
2022-10-01T12:24:45.611Z,77.18
2022-10-01T12:27:31.049Z,77.01
2022-10-01T12:30:03.687Z,75.18
2022-10-01T12:32:42.576Z,75.11
2022-10-01T12:35:39.812Z,74.56
2022-10-01T12:38:31.867Z,75.62
2022-10-01T12:41:26.785Z,78.10
2022-10-01T12:44:05.659Z,77.72
2022-10-01T12:46:56.718Z,78.78
2022-10-01T12:49:23.374Z,78.46
2022-10-01T12:52:04.557Z,78.56
2022-10-01T12:54:55.630Z,80.52
2022-10-01T12:57:33.849Z,80.55
2022-10-01T13:00:18.714Z,81.63
2022-10-01T13:02:51.455Z,83.57
2022-10-01T13:05:25.230Z,86.73
2022-10-01T13:08:13.686Z,87.28
2022-10-01T13:10:46.834Z,87.51
2022-10-01T13:13:16.999Z,88.14
2022-10-01T13:15:47.284Z,85.01
2022-10-01T13:18:26.379Z,83.85
2022-10-01T13:21:11.693Z,83.13
2022-10-01T13:23:38.457Z,83.16
2022-10-01T13:26:17.693Z,81.15
2022-10-01T13:29:03.052Z,81.23
2022-10-01T13:31:56.472Z,81.22
2022-10-01T13:34:40.451Z,81.69
2022-10-01T13:37:30.212Z,81.34
2022-10-01T13:39:58.592Z,82.42
2022-10-01T13:42:36.292Z,84.54
2022-10-01T13:45:06.675Z,83.82
2022-10-01T13:47:36.673Z,83.69
2022-10-01T13:50:07.341Z,83.35
2022-10-01T13:52:35.090Z,81.49
2022-10-01T13:55:02.460Z,81.40
2022-10-01T13:57:36.413Z,81.20
2022-10-01T14:00:12.196Z,80.27
2022-10-01T14:02:43.182Z,80.44
2022-10-01T14:05:35.486Z,78.39
2022-10-01T14:08:28.766Z,75.69
2022-10-01T14:11:02.206Z,74.62
2022-10-01T14:13:30.807Z,74.67
2022-10-01T14:15:58.748Z,74.15
2022-10-01T14:18:38.728Z,74.45
2022-10-01T14:21:08.774Z,76.27
2022-10-01T14:24:03.666Z,74.68
2022-10-01T14:26:44.876Z,74.64
2022-10-01T14:29:50.196Z,74.90
2022-10-01T14:32:29.888Z,72.32
2022-10-01T14:35:05.436Z,73.30
2022-10-01T14:37:38.311Z,74.64
2022-10-01T14:40:22.473Z,75.36
2022-10-01T14:42:59.370Z,74.70
2022-10-01T14:45:26.793Z,73.86
2022-10-01T14:48:05.090Z,75.53
2022-10-01T14:50:37.774Z,75.75
2022-10-01T14:53:06.054Z,73.45
2022-10-01T14:55:35.138Z,73.32
2022-10-01T14:58:02.612Z,75.41
2022-10-01T15:00:31.184Z,75.25
2022-10-01T15:03:24.465Z,76.02
2022-10-01T15:06:01.270Z,76.28
2022-10-01T15:08:41.277Z,77.70
2022-10-01T15:11:16.354Z,77.64
2022-10-01T15:13:46.368Z,78.49
2022-10-01T15:16:16.727Z,78.77
2022-10-01T15:18:54.099Z,80.02
2022-10-01T15:21:51.464Z,80.70
2022-10-01T15:24:26.217Z,81.62
2022-10-01T15:26:55.942Z,81.45
2022-10-01T15:29:23.448Z,82.13
2022-10-01T15:31:52.565Z,82.29
2022-10-01T15:34:25.303Z,83.02
2022-10-01T15:36:52.751Z,82.59
2022-10-01T15:39:40.927Z,82.86
2022-10-01T15:42:20.627Z,83.40
2022-10-01T15:44:49.182Z,83.90
2022-10-01T15:47:15.981Z,84.43
2022-10-01T15:50:12.668Z,83.56
2022-10-01T15:52:45.189Z,83.59
2022-10-01T15:55:16.424Z,84.00
2022-10-01T15:57:45.265Z,84.13
2022-10-01T16:00:29.776Z,84.69
2022-10-01T16:02:57.812Z,84.47
2022-10-01T16:05:35.967Z,83.70
2022-10-01T16:08:02.982Z,84.17
2022-10-01T16:10:38.781Z,84.62
2022-10-01T16:13:28.165Z,86.68
2022-10-01T16:16:30.685Z,86.17
2022-10-01T16:19:30.634Z,85.43
2022-10-01T16:22:21.613Z,85.01
2022-10-01T16:24:49.658Z,84.95
2022-10-01T16:27:18.030Z,85.80
2022-10-01T16:30:06.911Z,86.94
2022-10-01T16:32:34.631Z,86.59
2022-10-01T16:35:24.861Z,86.29
2022-10-01T16:37:54.324Z,87.09
2022-10-01T16:40:25.995Z,87.03
2022-10-01T16:42:53.852Z,87.25
2022-10-01T16:45:23.474Z,87.03
2022-10-01T16:47:51.335Z,87.12
2022-10-01T16:50:21.377Z,87.49
2022-10-01T16:52:51.774Z,87.63
2022-10-01T16:55:27.350Z,87.70
2022-10-01T16:57:54.851Z,88.18
2022-10-01T17:00:24.397Z,88.87
2022-10-01T17:02:51.755Z,89.09
2022-10-01T17:05:30.651Z,89.31
2022-10-01T17:07:58.627Z,89.76
2022-10-01T17:10:25.650Z,90.03
2022-10-01T17:12:52.429Z,90.66
2022-10-01T17:15:22.968Z,90.74
2022-10-01T17:17:53.008Z,91.07
2022-10-01T17:20:21.173Z,91.09
2022-10-01T17:22:49.150Z,90.69
2022-10-01T17:25:23.576Z,90.32
2022-10-01T17:27:51.017Z,90.47
2022-10-01T17:30:18.090Z,90.39
2022-10-01T17:32:44.893Z,90.82
2022-10-01T17:35:13.991Z,90.54
2022-10-01T17:37:41.903Z,90.48
2022-10-01T17:40:10.666Z,89.98
2022-10-01T17:42:38.188Z,90.49
2022-10-01T17:45:08.287Z,90.47
2022-10-01T17:47:35.451Z,90.46
2022-10-01T17:50:03.346Z,89.96
2022-10-01T17:52:30.606Z,90.18
2022-10-01T17:54:57.457Z,90.24
2022-10-01T17:57:24.718Z,90.32
2022-10-01T17:59:51.577Z,90.06
2022-10-01T18:02:40.332Z,90.09
2022-10-01T18:05:05.796Z,89.72
2022-10-01T18:07:33.101Z,90.00
2022-10-01T18:09:59.787Z,89.92
2022-10-01T18:12:26.829Z,90.52
2022-10-01T18:14:53.632Z,90.62
2022-10-01T18:17:20.344Z,90.64
2022-10-01T18:19:55.544Z,90.34
2022-10-01T18:22:22.504Z,90.20
2022-10-01T18:24:49.554Z,90.27
2022-10-01T18:27:16.451Z,90.19
2022-10-01T18:29:43.496Z,89.88
2022-10-01T18:32:19.417Z,89.38
2022-10-01T18:34:57.014Z,89.66
2022-10-01T18:37:52.519Z,89.74
2022-10-01T18:40:27.676Z,89.82
2022-10-01T18:43:13.153Z,89.03
2022-10-01T18:45:56.404Z,89.15
2022-10-01T18:48:41.887Z,89.36
2022-10-01T18:51:08.892Z,89.38
2022-10-01T18:53:38.835Z,89.47
2022-10-01T18:56:19.053Z,89.19
2022-10-01T18:58:54.551Z,89.19
2022-10-01T19:01:27.171Z,89.36
2022-10-01T19:04:04.045Z,89.97
2022-10-01T19:06:40.576Z,90.25
2022-10-01T19:09:29.925Z,90.07
2022-10-01T19:11:56.798Z,89.99
2022-10-01T19:14:35.579Z,90.12
2022-10-01T19:17:46.815Z,90.32
2022-10-01T19:20:29.127Z,90.88
2022-10-01T19:23:11.189Z,91.08
2022-10-01T19:25:48.818Z,90.26
2022-10-01T19:28:43.345Z,90.94
2022-10-01T19:31:15.621Z,91.29
2022-10-01T19:33:49.053Z,92.41
2022-10-01T19:36:25.410Z,93.88
2022-10-01T19:38:58.174Z,95.14
2022-10-01T19:41:37.207Z,96.45
2022-10-01T19:44:15.737Z,98.57
2022-10-01T19:46:44.601Z,99.16
2022-10-01T19:49:32.272Z,99.76
2022-10-01T19:52:12.915Z,100.00
2022-10-01T19:55:02.537Z,100.00
2022-10-01T19:57:30.033Z,99.63
2022-10-01T20:00:04.941Z,98.98
2022-10-01T20:02:37.622Z,98.54
2022-10-01T20:05:16.508Z,98.34
2022-10-01T20:07:54.632Z,98.23
2022-10-01T20:10:44.106Z,98.19
2022-10-01T20:13:58.288Z,97.77
2022-10-01T20:16:28.706Z,97.39
2022-10-01T20:19:13.446Z,97.30
2022-10-01T20:22:01.827Z,97.09
2022-10-01T20:25:03.038Z,96.75
2022-10-01T20:27:58.210Z,96.78
2022-10-01T20:30:27.665Z,96.82
2022-10-01T20:33:05.783Z,96.85
2022-10-01T20:35:43.941Z,96.50
2022-10-01T20:38:23.071Z,96.44
2022-10-01T20:41:19.328Z,96.24
2022-10-01T20:44:05.021Z,97.01
2022-10-01T20:46:38.504Z,97.61
2022-10-01T20:49:15.468Z,98.28
2022-10-01T20:51:57.594Z,98.91
2022-10-01T20:54:32.453Z,99.23
2022-10-01T20:56:59.383Z,99.32
2022-10-01T20:59:37.180Z,98.91
2022-10-01T21:02:31.897Z,98.90
2022-10-01T21:05:13.453Z,98.78
2022-10-01T21:08:00.914Z,98.48
2022-10-01T21:10:40.338Z,98.59
2022-10-01T21:13:46.157Z,98.83
2022-10-01T21:16:38.364Z,98.53
2022-10-01T21:19:39.421Z,98.36
2022-10-01T21:22:41.461Z,98.32
2022-10-01T21:25:22.305Z,97.99
2022-10-01T21:28:07.760Z,98.20
2022-10-01T21:31:11.951Z,98.76
2022-10-01T21:34:03.053Z,99.50
2022-10-01T21:36:52.982Z,100.00
2022-10-01T21:39:41.708Z,100.00
2022-10-01T21:42:16.268Z,100.00
2022-10-01T21:45:19.527Z,100.00
2022-10-01T21:48:27.275Z,100.00
2022-10-01T21:51:06.453Z,100.00
2022-10-01T21:53:58.407Z,100.00
2022-10-01T21:56:51.734Z,100.00
2022-10-01T21:59:39.510Z,100.00
2022-10-01T22:02:28.187Z,99.93
2022-10-01T22:05:02.592Z,99.59
2022-10-01T22:08:10.410Z,99.46
2022-10-01T22:10:46.313Z,99.38
2022-10-01T22:13:33.945Z,99.00
2022-10-01T22:16:10.942Z,99.33
2022-10-01T22:18:46.433Z,99.75
2022-10-01T22:21:35.224Z,100.00
2022-10-01T22:24:22.151Z,100.00
2022-10-01T22:27:04.190Z,100.00
2022-10-01T22:29:32.742Z,100.00
2022-10-01T22:32:04.654Z,100.00
2022-10-01T22:34:39.138Z,100.00
2022-10-01T22:37:12.642Z,100.00
2022-10-01T22:39:46.416Z,99.96
2022-10-01T22:42:30.447Z,99.09
2022-10-01T22:45:14.532Z,97.34
2022-10-01T22:47:53.677Z,96.85
2022-10-01T22:50:38.628Z,97.47
2022-10-01T22:53:19.098Z,96.88
2022-10-01T22:55:56.995Z,96.62
2022-10-01T22:58:50.030Z,96.66
2022-10-01T23:01:29.626Z,96.38
2022-10-01T23:04:33.449Z,96.49
2022-10-01T23:07:12.141Z,95.83
2022-10-01T23:09:52.715Z,95.21
2022-10-01T23:12:27.468Z,95.66
2022-10-01T23:15:07.486Z,96.36
2022-10-01T23:17:38.932Z,97.87
2022-10-01T23:20:24.173Z,98.13
2022-10-01T23:23:30.500Z,97.82
2022-10-01T23:26:11.885Z,97.73
2022-10-01T23:28:57.103Z,97.63
2022-10-01T23:31:41.513Z,97.49
2022-10-01T23:34:20.141Z,97.25
2022-10-01T23:37:03.293Z,96.76
2022-10-01T23:39:45.672Z,96.28
2022-10-01T23:42:15.292Z,96.39
2022-10-01T23:45:05.072Z,97.05
2022-10-01T23:47:42.970Z,97.47
2022-10-01T23:50:20.650Z,97.78
2022-10-01T23:52:57.822Z,98.60
2022-10-01T23:55:39.393Z,98.51
2022-10-01T23:58:11.206Z,98.60
